Time;durP1;ratioP1;P1;durP2;ratioP2;P2;SDS_P1;SDS_P2;PMS_P1;PMS_P2;Temp;Humidity;BMP_temperature;BMP_pressure;BME280_temperature;BME280_humidity;BME280_pressure;Samples;Min_cycle;Max_cycle;Signal;HPM_P1;HPM_P2
2022/05/14 00:02:02;;;;;;;5.00;2.17;;;14.80;61.40;;;;;;5047728;28;20029;-71
2022/05/14 00:04:28;;;;;;;4.13;1.85;;;14.70;61.80;;;;;;5044601;28;20443;-71
2022/05/14 00:06:54;;;;;;;5.60;2.05;;;14.70;61.70;;;;;;5041160;28;20045;-70
2022/05/14 00:09:20;;;;;;;5.25;2.10;;;14.60;61.80;;;;;;5047877;28;20383;-70
2022/05/14 00:14:29;;;;;;;4.53;2.20;;;14.60;62.10;;;;;;5046006;28;20542;-70
2022/05/14 00:16:55;;;;;;;6.82;2.80;;;14.50;62.40;;;;;;5039253;28;20052;-71
2022/05/14 00:19:22;;;;;;;5.47;2.10;;;14.50;62.80;;;;;;5046115;28;20030;-71
2022/05/14 00:21:48;;;;;;;5.40;2.03;;;14.50;62.80;;;;;;5036034;28;20017;-72
2022/05/14 00:24:13;;;;;;;6.05;2.50;;;14.40;62.70;;;;;;5035734;28;20590;-71
2022/05/14 00:26:39;;;;;;;6.13;2.75;;;14.40;63.20;;;;;;5038358;28;20026;-72
2022/05/14 00:29:06;;;;;;;8.52;2.75;;;14.30;63.60;;;;;;5044881;28;20516;-72
2022/05/14 00:31:32;;;;;;;6.30;2.65;;;14.20;64.00;;;;;;5047531;28;20052;-72
2022/05/14 00:33:58;;;;;;;5.03;2.60;;;14.20;64.20;;;;;;5048725;28;20106;-72
2022/05/14 00:36:23;;;;;;;7.32;2.88;;;14.20;64.40;;;;;;5031263;28;20030;-71
2022/05/14 00:38:49;;;;;;;10.23;3.13;;;14.10;64.70;;;;;;5042714;28;20091;-71
2022/05/14 00:41:15;;;;;;;8.00;2.90;;;14.00;65.10;;;;;;5046160;28;20025;-69
2022/05/14 00:43:56;;;;;;;7.03;3.10;;;14.00;65.30;;;;;;5049299;28;20092;-70
2022/05/14 00:46:32;;;;;;;6.43;2.60;;;13.90;65.60;;;;;;5041761;28;20087;-70
2022/05/14 00:48:59;;;;;;;4.78;2.30;;;13.90;65.70;;;;;;5046908;28;20104;-70
2022/05/14 00:51:28;;;;;;;5.30;2.70;;;13.90;65.50;;;;;;5039982;28;20495;-70
2022/05/14 00:54:04;;;;;;;5.70;2.40;;;13.90;65.50;;;;;;5047061;28;20418;-70
2022/05/14 00:56:36;;;;;;;6.18;2.22;;;13.90;65.50;;;;;;5035168;28;20060;-70
2022/05/14 00:59:03;;;;;;;4.35;2.25;;;13.90;65.60;;;;;;5036302;28;20052;-70
2022/05/14 01:01:29;;;;;;;6.20;2.30;;;13.80;65.50;;;;;;5040052;28;20032;-70
2022/05/14 01:03:55;;;;;;;6.25;2.40;;;13.90;65.60;;;;;;5042754;28;20013;-70
2022/05/14 01:06:22;;;;;;;5.28;2.45;;;13.90;65.60;;;;;;5040056;28;20078;-69
2022/05/14 01:08:48;;;;;;;4.45;2.42;;;13.90;65.60;;;;;;5040443;28;20086;-69
2022/05/14 01:11:15;;;;;;;5.95;2.70;;;13.80;65.60;;;;;;5043212;28;20486;-69
2022/05/14 01:13:41;;;;;;;6.30;2.65;;;13.90;65.60;;;;;;5046972;28;20033;-69
2022/05/14 01:16:07;;;;;;;6.95;2.75;;;13.80;65.60;;;;;;5045951;28;20029;-69
2022/05/14 01:18:35;;;;;;;6.50;2.40;;;13.80;65.50;;;;;;5046476;28;20029;-69
2022/05/14 01:21:26;;;;;;;6.30;2.50;;;13.80;65.40;;;;;;5050526;28;20036;-69
2022/05/14 01:26:47;;;;;;;4.20;1.70;;;13.80;65.10;;;;;;5048065;28;20102;-73
2022/05/14 01:29:19;;;;;;;3.25;1.70;;;13.90;64.90;;;;;;5045108;28;20021;-69
2022/05/14 01:31:46;;;;;;;5.18;1.92;;;13.90;64.80;;;;;;5051079;28;20506;-72
2022/05/14 01:34:17;;;;;;;4.75;2.00;;;14.00;64.60;;;;;;5046989;28;20032;-71
2022/05/14 01:36:44;;;;;;;4.60;1.92;;;14.00;64.40;;;;;;5049721;28;20035;-70
2022/05/14 01:39:09;;;;;;;4.60;1.77;;;14.00;64.30;;;;;;5047179;28;20029;-69
2022/05/14 01:41:36;;;;;;;3.75;1.70;;;14.10;64.30;;;;;;5050588;28;20036;-69
2022/05/14 01:44:01;;;;;;;4.80;1.90;;;14.10;64.20;;;;;;5051500;28;20556;-70
2022/05/14 01:46:27;;;;;;;4.55;2.00;;;14.10;64.10;;;;;;5045184;28;20024;-69
2022/05/14 01:48:53;;;;;;;3.00;1.70;;;14.20;64.10;;;;;;5043541;28;20475;-69
2022/05/14 01:51:19;;;;;;;4.80;1.88;;;14.20;64.00;;;;;;5042538;28;20029;-69
2022/05/14 01:53:45;;;;;;;6.60;2.03;;;14.20;63.90;;;;;;5036717;28;20048;-69
2022/05/14 01:56:11;;;;;;;4.63;2.15;;;14.20;63.90;;;;;;5039681;28;20472;-70
2022/05/14 01:58:37;;;;;;;5.20;1.80;;;14.20;63.90;;;;;;5040764;28;20104;-71
2022/05/14 02:01:16;;;;;;;4.20;1.90;;;14.20;63.90;;;;;;5043414;28;20036;-70
2022/05/14 02:03:45;;;;;;;4.20;2.03;;;14.20;64.00;;;;;;5044840;28;20033;-69
2022/05/14 02:06:11;;;;;;;3.97;1.80;;;14.10;64.00;;;;;;5050942;28;20036;-69
2022/05/14 02:08:36;;;;;;;4.35;1.98;;;14.10;64.10;;;;;;5041371;28;20094;-69
2022/05/14 02:11:02;;;;;;;4.40;2.40;;;14.00;64.10;;;;;;5046636;28;20025;-70
2022/05/14 02:13:28;;;;;;;2.70;1.70;;;14.00;64.30;;;;;;5043847;28;20033;-72
2022/05/14 02:15:54;;;;;;;5.10;1.85;;;14.00;64.40;;;;;;5048461;28;20029;-72
2022/05/14 02:18:21;;;;;;;4.90;1.85;;;14.00;64.40;;;;;;5043517;28;20514;-71
2022/05/14 02:20:46;;;;;;;4.65;2.00;;;13.90;64.60;;;;;;5042112;28;20037;-71
2022/05/14 02:23:12;;;;;;;4.72;2.00;;;13.90;65.40;;;;;;5044695;28;20036;-72
2022/05/14 02:25:38;;;;;;;5.25;2.00;;;13.80;64.70;;;;;;5044766;28;20030;-72
2022/05/14 02:28:04;;;;;;;4.95;2.17;;;13.80;64.90;;;;;;5042672;28;20020;-72
2022/05/14 02:30:30;;;;;;;5.05;2.28;;;13.80;65.00;;;;;;5049192;28;20376;-71
2022/05/14 02:32:55;;;;;;;5.72;2.05;;;13.80;65.10;;;;;;5041034;28;20024;-71
2022/05/14 02:35:21;;;;;;;6.68;2.40;;;13.70;65.00;;;;;;5050462;28;20103;-73
2022/05/14 02:37:47;;;;;;;3.38;2.00;;;13.70;65.10;;;;;;5046634;28;20056;-71
2022/05/14 02:40:13;;;;;;;4.57;2.28;;;13.70;65.20;;;;;;5052273;28;20028;-71
2022/05/14 02:42:39;;;;;;;4.30;2.15;;;13.60;65.30;;;;;;5047592;28;20025;-72
2022/05/14 02:45:05;;;;;;;4.53;2.20;;;13.60;65.40;;;;;;5049950;28;20082;-71
2022/05/14 02:47:31;;;;;;;4.38;2.30;;;13.60;65.50;;;;;;5048317;28;20025;-71
2022/05/14 02:49:57;;;;;;;5.07;2.30;;;13.50;65.50;;;;;;5047506;28;20022;-70
2022/05/14 02:52:23;;;;;;;4.93;2.42;;;13.50;65.70;;;;;;5046432;28;20091;-71
2022/05/14 02:54:49;;;;;;;6.53;2.47;;;13.50;65.90;;;;;;5050502;28;20111;-68
2022/05/14 02:57:15;;;;;;;5.13;2.25;;;13.40;66.10;;;;;;5036378;28;20041;-68
2022/05/14 02:59:41;;;;;;;4.72;2.10;;;13.40;66.20;;;;;;5043565;28;20274;-69
2022/05/14 03:02:07;;;;;;;5.90;2.30;;;13.40;66.40;;;;;;5047302;28;20025;-68
2022/05/14 03:04:37;;;;;;;5.53;2.30;;;13.30;66.40;;;;;;5046852;28;20399;-68
2022/05/14 03:07:04;;;;;;;3.25;2.10;;;13.30;66.40;;;;;;5046421;28;20464;-69
2022/05/14 03:09:30;;;;;;;7.80;2.60;;;13.30;66.50;;;;;;5041679;28;20025;-69
2022/05/14 03:11:56;;;;;;;5.25;2.25;;;13.30;66.60;;;;;;5037251;28;20035;-69
2022/05/14 03:14:22;;;;;;;3.45;2.00;;;13.30;66.80;;;;;;5040700;28;20048;-69
2022/05/14 03:16:47;;;;;;;4.60;2.25;;;13.30;66.80;;;;;;5048354;28;20021;-69
2022/05/14 03:19:14;;;;;;;4.38;2.05;;;13.20;66.90;;;;;;5041310;28;20053;-71
2022/05/14 03:21:40;;;;;;;6.57;2.28;;;13.20;66.90;;;;;;5049330;28;20033;-70
2022/05/14 03:24:06;;;;;;;5.15;2.13;;;13.20;66.90;;;;;;5046362;28;20431;-71
2022/05/14 03:26:31;;;;;;;5.57;2.50;;;13.20;66.90;;;;;;5049346;28;20056;-71
2022/05/14 03:28:57;;;;;;;6.13;2.33;;;13.10;67.00;;;;;;5043332;28;20021;-72
2022/05/14 03:31:23;;;;;;;6.15;2.60;;;13.10;67.00;;;;;;5045841;28;20422;-71
2022/05/14 03:33:49;;;;;;;4.30;2.15;;;13.10;67.10;;;;;;5044819;28;20112;-71
2022/05/14 03:36:14;;;;;;;5.00;2.28;;;13.10;67.20;;;;;;5044131;28;20120;-72
2022/05/14 03:38:40;;;;;;;6.88;2.58;;;13.10;67.30;;;;;;5042041;28;20037;-71
2022/05/14 03:41:06;;;;;;;4.15;1.88;;;13.00;67.30;;;;;;5043818;28;20031;-69
2022/05/14 03:43:32;;;;;;;3.95;2.00;;;13.00;67.40;;;;;;5048143;28;20025;-69
2022/05/14 03:45:58;;;;;;;4.45;2.20;;;13.00;67.50;;;;;;5044355;28;20047;-70
2022/05/14 03:48:24;;;;;;;4.85;2.30;;;13.00;67.50;;;;;;5036898;28;20082;-70
2022/05/14 03:50:50;;;;;;;4.50;2.25;;;12.90;67.40;;;;;;5044716;28;20517;-70
2022/05/14 03:53:16;;;;;;;5.13;2.45;;;12.90;67.40;;;;;;5035077;28;20037;-70
2022/05/14 03:55:41;;;;;;;5.32;2.50;;;12.90;67.50;;;;;;5044630;28;20104;-70
2022/05/14 03:58:07;;;;;;;4.05;1.98;;;12.90;67.60;;;;;;5039506;28;20025;-70
2022/05/14 04:00:34;;;;;;;5.32;2.20;;;12.90;67.60;;;;;;5038561;28;20521;-69
2022/05/14 04:02:59;;;;;;;5.00;2.03;;;12.90;67.60;;;;;;5048558;28;20503;-68
2022/05/14 04:05:25;;;;;;;3.80;2.72;;;12.90;67.60;;;;;;5043853;28;20036;-69
2022/05/14 04:07:50;;;;;;;3.70;2.10;;;12.90;67.70;;;;;;5048337;28;20029;-71
2022/05/14 04:10:16;;;;;;;4.32;2.25;;;12.80;67.60;;;;;;5036346;28;20025;-70
2022/05/14 04:12:42;;;;;;;3.95;2.00;;;12.90;67.80;;;;;;5046485;28;20160;-70
2022/05/14 04:15:09;;;;;;;4.13;1.88;;;12.90;67.70;;;;;;5045346;28;20401;-69
2022/05/14 04:17:35;;;;;;;4.88;2.28;;;12.90;67.70;;;;;;5056320;28;20062;-69
2022/05/14 04:20:01;;;;;;;3.88;1.92;;;12.90;67.70;;;;;;5044446;28;20013;-70
2022/05/14 04:22:26;;;;;;;4.85;2.00;;;12.80;67.60;;;;;;5049230;28;20048;-69
2022/05/14 04:24:52;;;;;;;4.05;1.88;;;12.80;67.60;;;;;;5042639;28;20040;-68
2022/05/14 04:27:17;;;;;;;5.13;2.40;;;12.80;67.60;;;;;;5046538;28;20021;-70
2022/05/14 04:29:43;;;;;;;4.78;2.40;;;12.90;67.70;;;;;;5037232;28;20530;-69
2022/05/14 04:32:09;;;;;;;3.90;2.05;;;12.90;67.80;;;;;;5043756;28;20071;-67
2022/05/14 04:34:34;;;;;;;3.63;2.10;;;12.90;67.70;;;;;;5032199;28;20079;-67
2022/05/14 04:37:00;;;;;;;3.45;2.15;;;13.00;67.70;;;;;;5046203;28;20128;-67
2022/05/14 04:39:31;;;;;;;3.75;2.30;;;13.00;67.60;;;;;;5033394;28;20037;-68
2022/05/14 04:42:01;;;;;;;4.88;2.20;;;13.00;67.70;;;;;;5042893;28;20029;-69
2022/05/14 04:44:28;;;;;;;4.75;2.60;;;13.00;67.60;;;;;;5040898;28;20033;-69
2022/05/14 04:46:54;;;;;;;4.45;2.28;;;13.00;67.70;;;;;;5047635;28;20066;-69
2022/05/14 04:49:21;;;;;;;5.43;2.40;;;13.10;67.80;;;;;;5041015;28;20033;-69
2022/05/14 04:51:47;;;;;;;4.85;2.35;;;13.10;67.70;;;;;;5041976;28;20053;-71
2022/05/14 04:54:12;;;;;;;4.45;2.40;;;13.20;67.60;;;;;;5046040;28;20064;-71
2022/05/14 04:56:38;;;;;;;5.07;2.55;;;13.20;67.50;;;;;;5044256;28;20087;-70
2022/05/14 04:59:04;;;;;;;6.60;2.70;;;13.20;67.40;;;;;;5041475;28;20513;-70
2022/05/14 05:01:29;;;;;;;5.40;2.60;;;13.30;67.40;;;;;;5039898;28;20028;-70
2022/05/14 05:03:55;;;;;;;4.55;2.40;;;13.30;67.30;;;;;;5043261;28;20135;-70
2022/05/14 05:06:23;;;;;;;5.07;2.53;;;13.40;67.20;;;;;;5036743;28;20478;-71
2022/05/14 05:08:51;;;;;;;6.15;2.90;;;13.50;67.10;;;;;;5045837;28;20426;-71
2022/05/14 05:11:18;;;;;;;4.38;2.80;;;13.60;67.00;;;;;;5048997;28;20039;-69
2022/05/14 05:13:43;;;;;;;6.88;2.83;;;13.70;66.80;;;;;;5037667;28;20021;-69
2022/05/14 05:16:09;;;;;;;5.20;2.72;;;13.80;66.80;;;;;;5042239;28;20021;-70
2022/05/14 05:18:35;;;;;;;3.45;2.15;;;14.30;66.40;;;;;;5049281;28;20017;-69
2022/05/14 05:21:01;;;;;;;6.35;2.67;;;14.90;64.80;;;;;;5039337;28;20063;-69
2022/05/14 05:23:27;;;;;;;6.57;2.50;;;15.40;63.50;;;;;;5043496;28;20029;-70
2022/05/14 05:25:53;;;;;;;5.30;2.78;;;15.70;62.60;;;;;;5039202;28;20116;-68
2022/05/14 05:28:19;;;;;;;5.82;2.67;;;16.20;61.70;;;;;;5042103;28;20024;-68
2022/05/14 05:30:44;;;;;;;5.95;2.88;;;16.60;60.60;;;;;;5043005;28;20029;-69
2022/05/14 05:33:12;;;;;;;7.43;3.10;;;17.00;59.70;;;;;;5037388;28;20549;-70
2022/05/14 05:35:38;;;;;;;6.32;2.90;;;17.40;58.70;;;;;;5041095;28;20025;-68
2022/05/14 05:38:03;;;;;;;6.05;3.08;;;17.80;58.00;;;;;;5046022;28;20025;-68
2022/05/14 05:40:29;;;;;;;6.32;3.00;;;18.10;57.20;;;;;;5045814;28;20028;-68
2022/05/14 05:42:54;;;;;;;4.78;2.92;;;18.50;56.60;;;;;;5044621;28;20022;-68
2022/05/14 05:45:20;;;;;;;5.97;2.70;;;19.00;55.80;;;;;;5040659;28;20018;-70
2022/05/14 05:47:45;;;;;;;6.53;3.05;;;19.50;54.60;;;;;;5038685;28;20369;-70
2022/05/14 05:50:12;;;;;;;6.55;2.92;;;20.10;53.40;;;;;;5044891;28;20681;-71
2022/05/14 05:52:37;;;;;;;7.00;2.90;;;20.60;53.10;;;;;;5041891;28;20055;-71
2022/05/14 05:57:48;;;;;;;7.85;3.63;;;21.40;50.70;;;;;;5048498;28;20039;-69
2022/05/14 06:00:19;;;;;;;6.80;2.85;;;21.10;50.40;;;;;;5050122;28;20379;-71
2022/05/14 06:02:46;;;;;;;5.93;3.05;;;20.40;51.50;;;;;;5043621;28;20479;-67
2022/05/14 06:05:13;;;;;;;5.60;2.88;;;20.40;52.30;;;;;;5050997;28;20025;-69
2022/05/14 06:07:39;;;;;;;8.82;3.67;;;20.00;52.90;;;;;;5042989;28;20017;-69
2022/05/14 06:10:07;;;;;;;8.52;3.10;;;19.50;53.90;;;;;;5048252;28;20028;-69
2022/05/14 06:12:34;;;;;;;7.28;3.40;;;19.00;55.00;;;;;;5039556;28;20022;-69
2022/05/14 06:15:00;;;;;;;6.70;2.95;;;18.80;56.10;;;;;;5043144;28;21658;-68
2022/05/14 06:17:26;;;;;;;8.27;3.45;;;19.50;55.70;;;;;;5042393;28;20111;-70
2022/05/14 06:19:51;;;;;;;7.25;3.28;;;20.40;53.80;;;;;;5038041;28;20041;-69
2022/05/14 06:22:17;;;;;;;8.70;3.92;;;20.30;53.10;;;;;;5042205;28;20039;-69
2022/05/14 06:24:42;;;;;;;8.32;3.30;;;20.70;53.10;;;;;;5045132;28;20068;-70
2022/05/14 06:27:08;;;;;;;7.10;3.72;;;20.70;52.60;;;;;;5039505;28;20020;-69
2022/05/14 06:29:34;;;;;;;6.60;2.90;;;20.90;52.80;;;;;;5042107;28;20021;-69
2022/05/14 06:32:00;;;;;;;7.68;2.80;;;20.40;52.90;;;;;;5036522;28;20116;-69
2022/05/14 06:34:26;;;;;;;7.95;3.70;;;20.10;54.00;;;;;;5040130;28;20455;-69
2022/05/14 06:36:52;;;;;;;8.68;3.35;;;19.80;54.50;;;;;;5046002;28;20767;-69
2022/05/14 06:39:18;;;;;;;7.05;3.55;;;19.90;55.30;;;;;;5040025;28;20040;-68
2022/05/14 06:41:43;;;;;;;7.60;3.75;;;20.20;55.10;;;;;;5037670;28;20072;-69
2022/05/14 06:44:09;;;;;;;10.13;3.80;;;20.40;54.90;;;;;;5043161;28;20036;-71
2022/05/14 06:46:35;;;;;;;10.95;4.10;;;20.20;54.80;;;;;;5043479;28;20059;-70
2022/05/14 06:49:02;;;;;;;9.60;3.42;;;20.20;54.90;;;;;;5040022;28;20021;-71
2022/05/14 06:51:30;;;;;;;8.75;4.03;;;20.10;55.20;;;;;;5040580;28;20036;-71
2022/05/14 06:54:03;;;;;;;8.70;3.10;;;19.90;55.50;;;;;;5045588;28;20096;-71
2022/05/14 06:56:32;;;;;;;9.82;3.42;;;20.00;55.70;;;;;;5036049;28;20033;-70
2022/05/14 06:59:00;;;;;;;8.52;4.00;;;20.10;55.70;;;;;;5040993;28;20034;-71
2022/05/14 07:01:27;;;;;;;9.18;3.42;;;20.10;55.60;;;;;;5035549;28;20036;-70
2022/05/14 07:06:39;;;;;;;9.23;3.72;;;20.40;55.30;;;;;;5042568;28;20033;-70
2022/05/14 07:09:15;;;;;;;8.93;3.45;;;20.70;54.80;;;;;;5041310;28;20017;-69
2022/05/14 07:11:47;;;;;;;10.38;3.90;;;21.00;54.50;;;;;;5038258;28;20693;-69
2022/05/14 07:14:17;;;;;;;7.30;3.30;;;21.10;54.20;;;;;;5035376;28;20043;-70
2022/05/14 07:16:43;;;;;;;8.60;3.53;;;21.10;54.20;;;;;;5041439;28;20591;-69
2022/05/14 07:19:09;;;;;;;10.98;3.83;;;21.00;54.00;;;;;;5040670;28;20112;-70
2022/05/14 07:21:36;;;;;;;9.38;3.45;;;20.90;54.20;;;;;;5037332;28;20036;-68
2022/05/14 07:24:05;;;;;;;7.22;3.45;;;20.90;54.40;;;;;;5033455;28;20158;-68
2022/05/14 07:26:31;;;;;;;8.75;3.88;;;20.80;54.30;;;;;;5023485;28;20025;-69
2022/05/14 07:28:57;;;;;;;9.57;3.80;;;20.80;54.40;;;;;;5037131;28;20025;-68
2022/05/14 07:31:22;;;;;;;10.85;3.95;;;20.70;54.30;;;;;;5042098;28;20033;-70
2022/05/14 07:33:49;;;;;;;11.30;4.30;;;20.60;54.50;;;;;;5043180;28;20041;-68
2022/05/14 07:36:18;;;;;;;8.80;3.72;;;20.60;54.50;;;;;;5038490;28;20491;-69
2022/05/14 07:38:44;;;;;;;8.50;3.85;;;20.50;54.70;;;;;;5043996;28;20445;-69
2022/05/14 07:41:11;;;;;;;10.80;3.65;;;20.60;54.60;;;;;;5041454;28;20014;-70
2022/05/14 07:43:39;;;;;;;10.90;3.70;;;20.80;54.70;;;;;;5045530;28;20078;-69
2022/05/14 07:46:14;;;;;;;9.35;3.25;;;20.90;54.20;;;;;;5034783;28;20029;-69
2022/05/14 07:48:40;;;;;;;11.18;3.70;;;21.10;54.60;;;;;;5044359;28;20013;-70
2022/05/14 07:51:08;;;;;;;9.75;3.30;;;21.20;53.60;;;;;;5037324;28;20032;-68
2022/05/14 07:53:34;;;;;;;9.60;3.00;;;21.30;53.50;;;;;;5045519;28;20040;-69
2022/05/14 07:56:01;;;;;;;9.20;3.38;;;21.50;53.30;;;;;;5041521;28;20074;-68
2022/05/14 07:58:27;;;;;;;10.63;2.90;;;21.50;53.10;;;;;;5042947;28;20033;-69
2022/05/14 08:00:54;;;;;;;9.07;2.92;;;21.60;53.00;;;;;;5047835;28;20027;-68
2022/05/14 08:03:23;;;;;;;7.57;2.92;;;21.70;52.70;;;;;;5043802;28;20071;-68
2022/05/14 08:05:53;;;;;;;7.95;2.60;;;21.70;52.20;;;;;;5042434;28;20048;-69
2022/05/14 08:08:18;;;;;;;7.22;2.55;;;21.80;52.00;;;;;;5043677;28;20033;-69
2022/05/14 08:10:44;;;;;;;7.20;2.17;;;21.90;51.40;;;;;;5048270;28;20076;-70
2022/05/14 08:13:15;;;;;;;9.00;2.65;;;22.00;51.10;;;;;;5037135;28;20068;-68
2022/05/14 08:15:42;;;;;;;7.00;2.33;;;22.10;50.90;;;;;;5042375;28;20620;-68
2022/05/14 08:18:08;;;;;;;9.75;2.78;;;22.10;49.30;;;;;;5038430;28;20079;-68
2022/05/14 08:20:34;;;;;;;6.40;2.38;;;22.10;49.30;;;;;;5039096;28;20025;-68
2022/05/14 08:25:44;;;;;;;8.35;2.90;;;22.30;49.10;;;;;;5038095;28;20083;-68
2022/05/14 08:28:10;;;;;;;6.13;2.00;;;22.40;48.70;;;;;;5031053;28;20415;-68
2022/05/14 08:30:36;;;;;;;8.90;2.70;;;22.50;48.80;;;;;;5039710;28;20013;-68
2022/05/14 08:33:04;;;;;;;6.85;2.45;;;22.60;48.60;;;;;;5032351;28;20048;-69
2022/05/14 08:35:31;;;;;;;6.72;2.25;;;22.70;48.10;;;;;;5040063;28;20102;-69
2022/05/14 08:37:57;;;;;;;7.95;2.38;;;22.80;47.60;;;;;;5034480;28;20029;-70
2022/05/14 08:40:52;;;;;;;5.93;2.30;;;22.80;47.50;;;;;;5032689;28;20026;-70
2022/05/14 08:43:25;;;;;;;8.02;2.42;;;23.00;47.20;;;;;;5035293;28;20037;-67
2022/05/14 08:45:51;;;;;;;7.78;2.80;;;22.90;46.20;;;;;;5039673;28;20020;-69
2022/05/14 08:48:24;;;;;;;8.02;2.33;;;22.70;46.70;;;;;;5034296;28;20471;-68
2022/05/14 08:50:55;;;;;;;8.05;2.47;;;22.60;46.70;;;;;;5037143;28;20130;-68
2022/05/14 08:53:24;;;;;;;9.30;2.47;;;22.50;47.00;;;;;;5049974;28;20025;-69
2022/05/14 08:56:09;;;;;;;8.45;2.58;;;22.70;46.70;;;;;;5037102;28;20124;-68
2022/05/14 08:59:16;;;;;;;7.18;2.35;;;22.70;46.30;;;;;;5042617;28;20537;-69
2022/05/14 09:01:44;;;;;;;6.15;2.10;;;22.80;46.20;;;;;;5035290;28;20511;-69
2022/05/14 09:04:12;;;;;;;6.28;2.20;;;22.90;46.20;;;;;;5032218;28;20049;-69
2022/05/14 09:06:39;;;;;;;5.50;2.28;;;23.00;46.10;;;;;;5037200;28;20521;-70
2022/05/14 09:09:06;;;;;;;7.57;2.50;;;23.10;45.80;;;;;;5042509;28;20021;-69
2022/05/14 09:11:40;;;;;;;8.68;2.33;;;23.00;45.60;;;;;;5036789;28;20056;-68
2022/05/14 09:14:19;;;;;;;6.65;2.30;;;22.90;45.60;;;;;;5040975;28;20028;-69
2022/05/14 09:16:47;;;;;;;7.95;2.47;;;23.00;45.40;;;;;;5040236;28;20025;-69
2022/05/14 09:19:14;;;;;;;7.75;2.55;;;23.10;45.40;;;;;;5036192;28;20090;-70
2022/05/14 09:21:56;;;;;;;9.60;3.15;;;23.10;46.00;;;;;;5038063;28;20033;-67
2022/05/14 09:24:26;;;;;;;10.38;3.20;;;23.10;46.20;;;;;;5039846;28;20247;-69
2022/05/14 09:27:07;;;;;;;12.50;3.67;;;23.00;45.80;;;;;;5038150;28;20034;-69
2022/05/14 09:29:38;;;;;;;8.77;2.75;;;23.00;46.20;;;;;;5041020;28;20052;-68
2022/05/14 09:32:12;;;;;;;9.40;3.00;;;23.20;46.10;;;;;;5040623;28;20765;-69
2022/05/14 09:34:37;;;;;;;8.35;3.15;;;23.20;45.40;;;;;;5040939;28;20086;-69
2022/05/14 09:37:12;;;;;;;11.93;3.70;;;23.00;45.50;;;;;;5044861;28;20499;-69
2022/05/14 09:39:39;;;;;;;8.05;2.90;;;23.10;45.00;;;;;;5040985;28;20113;-69
2022/05/14 09:42:06;;;;;;;8.75;2.97;;;22.80;45.50;;;;;;5041012;28;20183;-69
2022/05/14 09:44:50;;;;;;;10.38;3.13;;;22.90;45.90;;;;;;5040786;28;20499;-70
2022/05/14 09:47:27;;;;;;;8.43;3.17;;;23.00;45.90;;;;;;5044352;28;20105;-70
2022/05/14 09:49:58;;;;;;;7.00;2.50;;;23.00;45.70;;;;;;5042215;28;20027;-69
2022/05/14 09:52:26;;;;;;;10.02;3.45;;;23.00;45.80;;;;;;5042619;28;20060;-69
2022/05/14 09:54:53;;;;;;;7.97;2.97;;;22.80;45.70;;;;;;5043137;28;20032;-69
2022/05/14 09:57:43;;;;;;;8.30;2.83;;;22.90;45.90;;;;;;5042082;28;20029;-68
2022/05/14 10:00:23;;;;;;;12.45;3.00;;;23.20;45.80;;;;;;5041197;28;20072;-67
2022/05/14 10:02:56;;;;;;;6.78;2.35;;;23.40;45.50;;;;;;5043873;28;20029;-68
2022/05/14 10:05:51;;;;;;;8.43;2.67;;;23.50;45.10;;;;;;5040120;28;20042;-69
2022/05/14 10:08:39;;;;;;;10.77;3.80;;;23.80;44.70;;;;;;5042092;28;20045;-68
2022/05/14 10:11:07;;;;;;;7.93;2.80;;;23.80;43.30;;;;;;5039836;28;20029;-69
2022/05/14 10:13:52;;;;;;;7.30;2.65;;;23.50;44.00;;;;;;5042805;28;20033;-68
2022/05/14 10:16:27;;;;;;;9.45;3.33;;;23.40;44.40;;;;;;5042165;28;20121;-69
2022/05/14 10:19:21;;;;;;;9.32;3.30;;;23.30;44.20;;;;;;5052175;28;20036;-68
2022/05/14 10:22:15;;;;;;;6.80;2.50;;;23.00;44.30;;;;;;5033251;28;20041;-69
2022/05/14 10:28:11;;;;;;;5.40;2.30;;;22.90;44.60;;;;;;5044706;28;20127;-71
2022/05/14 10:31:04;;;;;;;5.18;2.10;;;22.90;45.10;;;;;;5044569;28;20025;-70
2022/05/14 10:33:31;;;;;;;7.43;2.63;;;23.10;45.10;;;;;;5049664;28;20056;-71
2022/05/14 10:36:04;;;;;;;6.95;1.90;;;23.10;44.90;;;;;;5044855;28;20013;-71
2022/05/14 10:38:47;;;;;;;6.47;2.45;;;23.20;44.90;;;;;;5052810;28;20028;-70
2022/05/14 10:41:38;;;;;;;5.65;2.15;;;23.20;44.90;;;;;;5039712;28;20033;-70
2022/05/14 10:44:10;;;;;;;6.90;2.22;;;23.30;44.80;;;;;;5042095;28;20029;-71
2022/05/14 10:46:40;;;;;;;6.53;2.42;;;23.20;44.50;;;;;;5049757;28;20021;-69
2022/05/14 10:49:22;;;;;;;8.07;2.28;;;23.10;44.60;;;;;;5048122;28;20052;-71
2022/05/14 10:51:51;;;;;;;6.07;2.10;;;23.10;44.50;;;;;;5048307;28;20101;-71
2022/05/14 10:54:22;;;;;;;5.88;1.92;;;23.10;44.60;;;;;;5049100;28;20064;-71
2022/05/14 10:56:56;;;;;;;5.93;2.08;;;23.20;44.50;;;;;;5044201;28;20093;-69
2022/05/14 10:59:57;;;;;;;7.85;2.42;;;23.50;43.90;;;;;;5042482;28;20037;-71
2022/05/14 11:02:35;;;;;;;7.03;2.20;;;23.60;43.70;;;;;;5043647;28;20036;-71
2022/05/14 11:05:01;;;;;;;10.00;2.80;;;23.80;43.30;;;;;;5044540;28;20025;-71
2022/05/14 11:07:31;;;;;;;6.32;2.50;;;23.80;43.20;;;;;;5048029;28;20044;-71
2022/05/14 11:10:17;;;;;;;6.57;2.60;;;23.90;43.00;;;;;;5044735;28;20021;-71
2022/05/14 11:12:43;;;;;;;9.00;2.47;;;23.90;43.10;;;;;;5039217;28;20033;-71
2022/05/14 11:15:21;;;;;;;7.75;2.40;;;24.10;43.20;;;;;;5041490;28;20832;-72
2022/05/14 11:17:47;;;;;;;7.65;2.60;;;24.20;42.40;;;;;;5042698;28;20033;-71
2022/05/14 11:20:17;;;;;;;7.65;2.95;;;24.30;42.10;;;;;;5043071;28;20031;-72
2022/05/14 11:22:48;;;;;;;5.93;2.00;;;24.30;41.30;;;;;;5038511;28;20037;-71
2022/05/14 11:25:16;;;;;;;6.18;2.55;;;24.50;41.80;;;;;;5043854;28;20017;-71
2022/05/14 11:27:53;;;;;;;11.18;3.50;;;24.80;41.50;;;;;;5042741;28;20238;-71
2022/05/14 11:30:47;;;;;;;7.22;2.65;;;24.90;40.70;;;;;;5044087;28;20036;-71
2022/05/14 11:33:32;;;;;;;7.63;2.60;;;25.00;40.70;;;;;;5043133;28;20119;-71
2022/05/14 11:36:01;;;;;;;9.23;2.60;;;25.20;39.90;;;;;;5036897;28;20088;-71
2022/05/14 11:38:26;;;;;;;6.55;2.30;;;25.20;39.60;;;;;;5043122;28;20091;-71
2022/05/14 11:40:56;;;;;;;9.15;2.50;;;25.40;39.90;;;;;;5043534;28;20434;-71
2022/05/14 11:43:51;;;;;;;6.75;2.30;;;25.60;39.80;;;;;;5044236;28;20021;-71
2022/05/14 11:46:40;;;;;;;6.10;2.15;;;25.80;39.60;;;;;;5042176;28;20054;-70
2022/05/14 11:49:24;;;;;;;8.75;3.13;;;26.00;39.00;;;;;;5044678;28;20025;-69
2022/05/14 11:51:56;;;;;;;8.18;2.72;;;26.00;38.70;;;;;;5045469;28;20029;-70
2022/05/14 11:54:30;;;;;;;8.25;3.13;;;26.00;38.80;;;;;;5046080;28;20455;-69
2022/05/14 11:56:59;;;;;;;6.53;2.22;;;25.90;38.60;;;;;;5035582;28;20526;-70
2022/05/14 11:59:40;;;;;;;9.50;2.80;;;26.10;39.00;;;;;;5038082;28;20526;-70
2022/05/14 12:02:13;;;;;;;7.90;2.00;;;26.30;38.70;;;;;;5042906;28;20385;-70
2022/05/14 12:04:44;;;;;;;6.18;2.45;;;26.40;38.60;;;;;;5040997;28;20047;-70
2022/05/14 12:07:23;;;;;;;5.20;2.30;;;26.30;38.30;;;;;;5042567;28;20499;-70
2022/05/14 12:10:09;;;;;;;7.60;2.50;;;26.00;38.50;;;;;;5044959;28;20798;-70
2022/05/14 12:12:51;;;;;;;9.07;2.60;;;26.10;38.70;;;;;;5039026;28;20024;-70
2022/05/14 12:15:21;;;;;;;8.23;3.28;;;26.30;38.60;;;;;;5043471;28;20090;-69
2022/05/14 12:17:49;;;;;;;8.18;2.95;;;26.20;37.80;;;;;;5038643;28;20033;-70
2022/05/14 12:20:31;;;;;;;7.40;2.60;;;26.00;37.80;;;;;;5043040;28;20028;-70
2022/05/14 12:23:03;;;;;;;5.82;1.90;;;26.10;38.10;;;;;;5051895;28;20068;-70
2022/05/14 12:25:45;;;;;;;7.50;2.92;;;26.20;38.30;;;;;;5041412;28;20048;-70
2022/05/14 12:28:42;;;;;;;8.73;2.80;;;26.20;38.20;;;;;;5038971;28;20025;-71
2022/05/14 12:33:54;;;;;;;7.30;2.70;;;26.20;38.00;;;;;;5043942;28;20118;-70
2022/05/14 12:36:19;;;;;;;7.22;2.42;;;26.20;38.10;;;;;;5039913;28;20693;-70
2022/05/14 12:38:45;;;;;;;5.75;2.40;;;26.40;38.00;;;;;;5037161;28;20038;-71
2022/05/14 12:41:31;;;;;;;8.60;2.60;;;26.70;37.70;;;;;;5036716;28;20079;-71
2022/05/14 12:44:09;;;;;;;10.68;3.00;;;26.80;37.30;;;;;;5038824;28;20143;-71
2022/05/14 12:46:46;;;;;;;6.85;2.58;;;26.80;37.00;;;;;;5039097;28;20017;-71
2022/05/14 12:49:25;;;;;;;10.85;2.95;;;26.90;37.00;;;;;;5035845;28;20495;-71
2022/05/14 12:51:56;;;;;;;8.52;2.97;;;26.90;36.70;;;;;;5039464;28;20053;-70
2022/05/14 12:54:29;;;;;;;7.32;2.92;;;26.90;36.50;;;;;;5038400;28;20092;-70
2022/05/14 12:57:04;;;;;;;7.05;2.40;;;26.50;36.30;;;;;;5040720;28;20029;-70
2022/05/14 12:59:30;;;;;;;6.05;2.33;;;26.50;36.80;;;;;;5038312;28;20029;-70
2022/05/14 13:02:01;;;;;;;5.50;2.28;;;26.60;36.70;;;;;;5035292;28;20499;-70
2022/05/14 13:04:42;;;;;;;8.77;2.88;;;26.80;36.40;;;;;;5038700;28;20087;-71
2022/05/14 13:07:10;;;;;;;6.40;1.98;;;27.00;35.80;;;;;;5038986;28;20052;-71
2022/05/14 13:09:36;;;;;;;9.27;3.03;;;27.30;35.80;;;;;;5038385;28;20021;-70
2022/05/14 13:12:03;;;;;;;6.65;2.65;;;27.20;34.70;;;;;;5041115;28;20104;-71
2022/05/14 13:14:32;;;;;;;4.95;2.00;;;27.10;35.20;;;;;;5038496;28;20106;-71
2022/05/14 13:17:11;;;;;;;10.40;2.80;;;27.30;35.30;;;;;;5036185;28;20988;-71
2022/05/14 13:19:46;;;;;;;7.40;2.50;;;27.50;34.90;;;;;;5045183;28;20025;-71